createdAt,value
2022-11-15T00:01:19.449Z,156.77
2022-11-15T00:03:49.810Z,97.55
2022-11-15T00:06:19.871Z,137.48
2022-11-15T00:08:47.531Z,180.48
2022-11-15T00:11:15.358Z,146.40
2022-11-15T00:13:43.123Z,206.65
2022-11-15T00:16:11.760Z,220.00
2022-11-15T00:18:40.080Z,139.13
2022-11-15T00:21:09.349Z,494.30
2022-11-15T00:23:36.693Z,544.30
2022-11-15T00:26:04.392Z,381.98
2022-11-15T00:28:32.270Z,366.90
2022-11-15T00:31:04.000Z,198.35
2022-11-15T00:36:03.846Z,160.45
2022-11-15T00:38:38.210Z,180.32
2022-11-15T00:41:09.863Z,120.82
2022-11-15T00:43:41.282Z,190.50
2022-11-15T00:46:10.930Z,103.43
2022-11-15T00:48:39.084Z,133.32
2022-11-15T00:51:06.867Z,314.65
2022-11-15T00:53:36.976Z,127.20
2022-11-15T00:56:04.783Z,599.58
2022-11-15T00:58:32.974Z,337.20
2022-11-15T01:01:08.381Z,197.23
2022-11-15T01:03:37.301Z,184.82
2022-11-15T01:06:05.379Z,174.00
2022-11-15T01:08:33.716Z,135.50
2022-11-15T01:11:09.619Z,186.00
2022-11-15T01:13:40.616Z,166.73
2022-11-15T01:16:13.185Z,380.75
2022-11-15T01:18:41.589Z,166.05
2022-11-15T01:21:11.167Z,197.65
2022-11-15T01:23:39.310Z,162.52
2022-11-15T01:26:08.602Z,197.32
2022-11-15T01:28:37.947Z,222.15
2022-11-15T01:31:07.490Z,166.07
2022-11-15T01:33:40.338Z,135.90
2022-11-15T01:36:08.874Z,132.60
2022-11-15T01:38:37.234Z,169.48
2022-11-15T01:41:05.843Z,103.68
2022-11-15T01:43:38.227Z,153.75
2022-11-15T01:46:44.860Z,215.13
2022-11-15T01:49:18.228Z,145.30
2022-11-15T01:51:46.340Z,220.88
2022-11-15T01:54:16.707Z,138.18
2022-11-15T01:56:50.478Z,204.25
2022-11-15T01:59:18.415Z,165.15
2022-11-15T02:01:45.847Z,243.82
2022-11-15T02:04:13.608Z,180.52
2022-11-15T02:06:41.966Z,343.10
2022-11-15T02:09:10.019Z,216.00
2022-11-15T02:11:37.517Z,166.38
2022-11-15T02:14:06.000Z,169.68
2022-11-15T02:16:33.995Z,416.23
2022-11-15T02:19:34.143Z,208.47
2022-11-15T02:22:04.574Z,175.20
2022-11-15T02:24:40.001Z,168.95
2022-11-15T02:27:33.603Z,170.68
2022-11-15T02:30:20.485Z,114.82
2022-11-15T02:32:53.020Z,109.60
2022-11-15T02:35:21.161Z,109.30
2022-11-15T02:37:52.196Z,116.90
2022-11-15T02:40:34.845Z,128.73
2022-11-15T02:43:24.624Z,169.07
2022-11-15T02:45:55.440Z,145.45
2022-11-15T02:48:24.006Z,106.32
2022-11-15T02:50:51.797Z,74.90
2022-11-15T02:53:19.802Z,148.60
2022-11-15T02:55:48.472Z,75.43
2022-11-15T02:58:21.790Z,41.17
2022-11-15T03:00:53.523Z,145.27
2022-11-15T03:03:27.296Z,95.38
2022-11-15T03:05:58.921Z,96.63
2022-11-15T03:08:55.430Z,92.25
2022-11-15T03:11:24.241Z,88.68
2022-11-15T03:13:57.169Z,106.55
2022-11-15T03:16:34.065Z,124.80
2022-11-15T03:19:14.040Z,105.82
2022-11-15T03:21:42.478Z,95.03
2022-11-15T03:24:10.951Z,79.07
2022-11-15T03:26:40.850Z,112.20
2022-11-15T03:29:11.816Z,126.07
2022-11-15T03:31:50.329Z,94.85
2022-11-15T03:34:37.483Z,79.80
2022-11-15T03:37:10.444Z,110.85
2022-11-15T03:39:38.199Z,86.00
2022-11-15T03:42:15.083Z,93.63
2022-11-15T03:44:47.956Z,66.40
2022-11-15T03:47:20.412Z,70.90
2022-11-15T03:49:51.544Z,137.97
2022-11-15T03:52:19.857Z,151.95
2022-11-15T03:54:55.426Z,147.30
2022-11-15T03:57:25.070Z,134.05
2022-11-15T03:59:52.335Z,94.95
2022-11-15T04:02:19.543Z,101.57
2022-11-15T04:04:46.758Z,116.15
2022-11-15T04:07:14.093Z,105.00
2022-11-15T04:10:00.309Z,91.80
2022-11-15T04:12:33.693Z,112.07
2022-11-15T04:15:09.352Z,97.50
2022-11-15T04:17:36.827Z,99.28
2022-11-15T04:20:24.362Z,80.50
2022-11-15T04:23:13.173Z,162.03
2022-11-15T04:25:40.476Z,156.38
2022-11-15T04:28:07.690Z,80.70
2022-11-15T04:30:34.904Z,112.50
2022-11-15T04:33:04.153Z,117.97
2022-11-15T04:35:31.733Z,216.80
2022-11-15T04:37:59.320Z,175.75
2022-11-15T04:40:29.007Z,138.25
2022-11-15T04:43:02.368Z,152.67
2022-11-15T04:45:31.153Z,251.73
2022-11-15T04:47:58.375Z,100.77
2022-11-15T04:50:30.055Z,98.37
2022-11-15T04:55:24.466Z,139.70
2022-11-15T04:57:59.596Z,142.53
2022-11-15T05:00:26.975Z,137.35
2022-11-15T05:03:15.351Z,111.33
2022-11-15T05:05:42.861Z,134.57
2022-11-15T05:08:10.367Z,102.93
2022-11-15T05:10:37.584Z,119.73
2022-11-15T05:13:04.941Z,126.47
2022-11-15T05:15:32.171Z,76.55
2022-11-15T05:18:00.839Z,110.07
2022-11-15T05:20:28.210Z,89.17
2022-11-15T05:22:56.695Z,119.70
2022-11-15T06:19:23.956Z,40.83
2022-11-15T06:21:51.576Z,30.07
2022-11-15T06:24:19.325Z,33.37
2022-11-15T06:26:47.043Z,34.10
2022-11-15T06:29:14.761Z,54.30
2022-11-15T06:31:42.314Z,39.13
2022-11-15T06:34:12.368Z,39.90
2022-11-15T06:36:40.026Z,33.08
2022-11-15T06:39:08.006Z,33.33
2022-11-15T06:41:38.188Z,34.97
2022-11-15T06:44:05.944Z,32.43
2022-11-15T06:46:33.585Z,32.23
2022-11-15T06:49:03.990Z,31.70
2022-11-15T06:51:36.023Z,41.60
2022-11-15T06:54:04.012Z,30.27
2022-11-15T06:56:31.652Z,39.20
2022-11-15T06:58:59.247Z,37.53
2022-11-15T07:01:29.332Z,32.87
2022-11-15T07:03:57.015Z,43.25
2022-11-15T07:06:24.583Z,52.47
2022-11-15T07:08:54.567Z,50.40
2022-11-15T07:11:22.445Z,33.03
2022-11-15T07:13:50.076Z,40.35
2022-11-15T07:16:17.731Z,33.15
2022-11-15T07:18:45.514Z,40.53
2022-11-15T07:21:13.976Z,61.60
2022-11-15T07:23:41.838Z,43.33
2022-11-15T07:26:12.387Z,49.95
2022-11-15T07:28:40.378Z,32.65
2022-11-15T07:31:09.060Z,35.47
2022-11-15T07:33:37.435Z,35.80
2022-11-15T07:36:06.123Z,39.43
2022-11-15T07:38:39.375Z,34.47
2022-11-15T07:41:10.002Z,27.50
2022-11-15T07:43:37.657Z,32.08
2022-11-15T07:46:10.722Z,32.88
2022-11-15T07:48:44.416Z,34.40
2022-11-15T07:51:16.597Z,28.52
2022-11-15T07:53:45.034Z,34.13
2022-11-15T07:56:13.298Z,31.23
2022-11-15T07:58:41.083Z,28.95
2022-11-15T08:01:10.161Z,30.20
2022-11-15T08:03:38.664Z,26.63
2022-11-15T08:06:06.705Z,30.90
2022-11-15T08:08:34.479Z,23.20
2022-11-15T08:11:02.278Z,29.35
2022-11-15T08:13:30.123Z,27.90
2022-11-15T08:16:06.778Z,27.35
2022-11-15T08:18:34.082Z,23.17
2022-11-15T08:21:02.429Z,26.70
2022-11-15T08:23:30.927Z,21.30
2022-11-15T08:26:02.731Z,20.33
2022-11-15T08:28:30.077Z,25.90
2022-11-15T08:30:57.907Z,21.83
2022-11-15T08:33:25.849Z,20.52
2022-11-15T08:35:53.626Z,22.08
2022-11-15T08:38:21.166Z,22.95
2022-11-15T08:40:48.865Z,20.73
2022-11-15T08:43:16.690Z,22.83
2022-11-15T08:45:44.309Z,24.38
2022-11-15T08:48:11.911Z,19.42
2022-11-15T08:50:39.682Z,18.85
2022-11-15T08:53:08.207Z,19.10
2022-11-15T08:55:38.157Z,18.15
2022-11-15T08:58:06.096Z,20.95
2022-11-15T09:00:36.669Z,22.42
2022-11-15T09:03:07.839Z,17.93
2022-11-15T09:05:37.950Z,21.15
2022-11-15T09:08:25.078Z,19.85
2022-11-15T09:10:54.222Z,22.10
2022-11-15T09:13:21.885Z,20.27
2022-11-15T09:15:49.652Z,18.00
2022-11-15T09:18:17.726Z,17.25
2022-11-15T09:20:45.831Z,15.75
2022-11-15T09:23:13.658Z,16.05
2022-11-15T09:25:41.715Z,15.98
2022-11-15T09:28:10.071Z,48.42
2022-11-15T09:30:37.824Z,15.20
2022-11-15T09:33:09.197Z,16.77
2022-11-15T09:35:37.154Z,16.77
2022-11-15T09:38:05.447Z,14.68
2022-11-15T09:40:38.371Z,14.20
2022-11-15T09:43:06.351Z,15.73
2022-11-15T09:45:55.585Z,17.88
2022-11-15T09:48:40.391Z,16.17
2022-11-15T09:51:10.722Z,18.23
2022-11-15T09:54:30.314Z,17.25
2022-11-15T09:56:33.413Z,16.15
2022-11-15T09:59:19.759Z,16.42
2022-11-15T10:01:47.560Z,15.90
2022-11-15T10:04:16.592Z,14.88
2022-11-15T10:06:52.158Z,16.20
2022-11-15T10:09:26.589Z,15.68
2022-11-15T10:11:54.220Z,20.15
2022-11-15T10:14:26.417Z,19.60
2022-11-15T10:17:04.119Z,20.88
2022-11-15T10:20:03.897Z,18.25
2022-11-15T10:22:43.379Z,17.20
2022-11-15T10:25:11.091Z,20.27
2022-11-15T10:27:38.836Z,19.10
2022-11-15T10:30:12.388Z,21.38
2022-11-15T10:32:42.027Z,23.10
2022-11-15T10:35:29.818Z,22.65
2022-11-15T10:38:08.138Z,21.25
2022-11-15T10:40:36.363Z,20.77
2022-11-15T10:43:23.179Z,20.05
2022-11-15T10:45:52.052Z,23.88
2022-11-15T10:48:19.961Z,22.70
2022-11-15T10:50:48.702Z,21.95
2022-11-15T10:53:22.588Z,19.15
2022-11-15T10:55:51.661Z,21.48
2022-11-15T10:58:25.054Z,22.48
2022-11-15T11:00:54.757Z,22.48
2022-11-15T11:03:29.580Z,21.63
2022-11-15T11:06:07.649Z,23.20
2022-11-15T11:08:35.503Z,29.05
2022-11-15T11:11:04.823Z,27.67
2022-11-15T11:13:32.768Z,27.73
2022-11-15T11:16:19.244Z,26.48
2022-11-15T11:19:03.233Z,19.63
2022-11-15T11:21:40.410Z,26.08
2022-11-15T11:24:16.700Z,25.15
2022-11-15T11:26:44.474Z,24.75
2022-11-15T11:29:31.184Z,23.73
2022-11-15T11:32:10.444Z,22.63
2022-11-15T11:34:59.599Z,24.05
2022-11-15T11:37:30.079Z,28.50
2022-11-15T11:40:11.232Z,21.43
2022-11-15T11:42:38.413Z,23.05
2022-11-15T11:45:11.601Z,25.80
2022-11-15T11:47:41.624Z,26.80
2022-11-15T11:50:23.068Z,25.63
2022-11-15T11:52:50.295Z,24.38
2022-11-15T11:55:21.766Z,21.20
2022-11-15T12:00:22.114Z,26.00
2022-11-15T12:03:03.444Z,30.35
2022-11-15T12:05:34.930Z,25.02
2022-11-15T12:08:06.311Z,26.98
2022-11-15T12:10:36.163Z,25.85
2022-11-15T12:13:06.838Z,28.70
2022-11-15T12:15:54.899Z,33.13
2022-11-15T12:18:22.969Z,28.30
2022-11-15T12:21:00.723Z,27.35
2022-11-15T12:23:30.508Z,27.58
2022-11-15T12:26:01.991Z,28.08
2022-11-15T12:31:01.773Z,29.92
2022-11-15T12:33:39.617Z,26.95
2022-11-15T12:36:11.353Z,25.38
2022-11-15T12:38:56.953Z,30.15
2022-11-15T12:41:31.624Z,27.52
2022-11-15T12:44:00.183Z,23.95
2022-11-15T12:46:31.008Z,26.05
2022-11-15T12:48:58.224Z,31.38
2022-11-15T12:51:43.816Z,26.38
2022-11-15T12:54:23.789Z,30.80
2022-11-15T12:57:03.734Z,30.02
2022-11-15T12:59:50.344Z,28.65
2022-11-15T13:02:22.607Z,28.38
2022-11-15T13:04:50.279Z,32.47
2022-11-15T13:07:36.604Z,33.00
2022-11-15T13:10:27.949Z,24.48
2022-11-15T13:15:23.665Z,28.80
2022-11-15T13:17:52.545Z,32.75
2022-11-15T13:20:20.515Z,29.90
2022-11-15T13:23:00.414Z,27.13
2022-11-15T13:25:34.056Z,27.15
2022-11-15T13:28:07.834Z,28.70
2022-11-15T13:30:35.866Z,28.33
2022-11-15T13:33:09.695Z,29.20
2022-11-15T13:35:40.710Z,34.95
2022-11-15T13:38:08.662Z,100.70
2022-11-15T13:40:37.002Z,66.38
2022-11-15T13:43:24.205Z,32.38
2022-11-15T13:46:10.541Z,36.50
2022-11-15T13:48:37.827Z,31.30
2022-11-15T13:51:06.690Z,34.78
2022-11-15T13:53:35.715Z,28.42
2022-11-15T13:56:04.974Z,32.28
2022-11-15T13:58:34.323Z,25.90
2022-11-15T14:01:03.591Z,27.80
2022-11-15T14:03:35.783Z,31.13
2022-11-15T14:06:14.526Z,33.63
2022-11-15T14:08:42.798Z,28.83
2022-11-15T14:11:14.477Z,32.03
2022-11-15T14:13:42.523Z,31.15
2022-11-15T14:16:30.310Z,32.25
2022-11-15T14:18:58.365Z,32.50
2022-11-15T14:21:26.021Z,29.08
2022-11-15T14:23:53.874Z,32.92
2022-11-15T14:26:29.500Z,53.40
2022-11-15T14:28:57.380Z,60.25
2022-11-15T14:31:25.217Z,94.97
2022-11-15T14:33:52.987Z,94.05
2022-11-15T14:36:21.832Z,86.18
2022-11-15T14:38:49.953Z,70.00
2022-11-15T14:41:21.153Z,69.70
2022-11-15T14:43:48.775Z,54.50
2022-11-15T14:46:16.469Z,46.78
2022-11-15T14:48:44.083Z,41.40
2022-11-15T14:51:13.817Z,42.90
2022-11-15T14:53:43.651Z,188.65
2022-11-15T14:56:11.374Z,316.85
2022-11-15T14:58:39.254Z,168.25
2022-11-15T15:01:15.585Z,113.47
2022-11-15T15:03:45.432Z,51.35
2022-11-15T15:06:17.850Z,41.70
2022-11-15T15:08:46.783Z,57.20
2022-11-15T15:11:25.389Z,121.70
2022-11-15T15:13:53.855Z,78.55
2022-11-15T15:16:21.530Z,72.63
2022-11-15T15:18:49.448Z,91.68
2022-11-15T15:21:24.520Z,100.82
2022-11-15T15:23:52.599Z,63.30
2022-11-15T15:26:20.170Z,34.45
2022-11-15T15:28:49.903Z,81.18
2022-11-15T15:31:17.697Z,105.28
2022-11-15T15:33:45.889Z,106.65
2022-11-15T15:36:14.509Z,36.45
2022-11-15T15:38:42.732Z,28.23
2022-11-15T15:41:12.183Z,39.53
2022-11-15T15:43:40.383Z,60.17
2022-11-15T15:46:13.614Z,63.03
2022-11-15T15:48:41.939Z,87.97
2022-11-15T15:51:15.443Z,83.25
2022-11-15T15:53:47.505Z,88.70
2022-11-15T15:56:15.780Z,35.75
2022-11-15T15:58:43.071Z,35.55
2022-11-15T16:01:11.027Z,50.20
2022-11-15T16:03:38.668Z,75.40
2022-11-15T16:06:06.424Z,42.50
2022-11-15T16:08:53.428Z,44.97
2022-11-15T16:11:21.152Z,60.58
2022-11-15T16:13:48.745Z,37.22
2022-11-15T16:16:16.006Z,35.47
2022-11-15T16:18:43.275Z,39.42
2022-11-15T16:21:10.702Z,32.72
2022-11-15T16:23:37.916Z,64.07
2022-11-15T16:26:22.787Z,70.57
2022-11-15T16:28:50.690Z,81.22
2022-11-15T16:31:19.624Z,123.18
2022-11-15T16:33:47.763Z,168.45
2022-11-15T16:36:18.090Z,230.38
2022-11-15T16:38:45.896Z,180.63
2022-11-15T16:41:13.682Z,189.43
2022-11-15T16:43:40.892Z,192.57
2022-11-15T16:46:16.072Z,137.13
2022-11-15T16:48:43.744Z,51.42
2022-11-15T16:51:11.766Z,46.30
2022-11-15T16:53:39.721Z,47.67
2022-11-15T16:56:16.557Z,58.70
2022-11-15T16:58:44.302Z,47.47
2022-11-15T17:01:18.198Z,55.67
2022-11-15T17:03:46.004Z,64.18
2022-11-15T17:06:14.744Z,73.95
2022-11-15T17:08:42.696Z,83.38
2022-11-15T17:11:10.668Z,47.65
2022-11-15T17:13:38.464Z,184.70
2022-11-15T17:16:10.883Z,135.30
2022-11-15T17:18:39.697Z,80.30
2022-11-15T17:21:07.583Z,102.80
2022-11-15T17:23:35.219Z,96.60
2022-11-15T17:26:28.231Z,113.85
2022-11-15T17:28:57.724Z,146.90
2022-11-15T17:33:53.420Z,232.02
2022-11-15T17:36:21.513Z,225.68
2022-11-15T17:38:58.107Z,222.98
2022-11-15T17:41:27.650Z,236.38
2022-11-15T17:43:58.325Z,232.65
2022-11-15T17:46:26.400Z,277.50
2022-11-15T17:48:54.434Z,275.67
2022-11-15T17:51:24.405Z,208.30
2022-11-15T17:53:53.214Z,216.18
2022-11-15T17:56:22.221Z,185.40
2022-11-15T17:58:50.755Z,150.75
2022-11-15T18:01:18.535Z,130.48
2022-11-15T18:03:46.563Z,77.20
2022-11-15T18:06:14.581Z,74.93
2022-11-15T18:08:43.679Z,69.50
2022-11-15T18:11:16.237Z,56.17
2022-11-15T18:13:51.894Z,73.97
2022-11-15T18:16:21.120Z,58.17
2022-11-15T18:18:49.388Z,87.13
2022-11-15T18:21:24.209Z,91.93
2022-11-15T18:23:55.294Z,85.10
2022-11-15T18:26:27.249Z,76.05
2022-11-15T18:29:04.200Z,123.28
2022-11-15T18:31:32.603Z,148.07
2022-11-15T18:34:01.286Z,157.93
2022-11-15T18:36:30.840Z,110.50
2022-11-15T18:39:02.629Z,100.93
2022-11-15T18:41:31.221Z,106.85
2022-11-15T18:44:01.299Z,141.13
2022-11-15T18:46:31.253Z,140.43
2022-11-15T18:49:01.632Z,167.75
2022-11-15T18:51:30.848Z,149.70
2022-11-15T18:53:59.995Z,167.70
2022-11-15T18:56:28.269Z,179.88
2022-11-15T18:58:57.265Z,164.43
2022-11-15T19:01:34.229Z,145.10
2022-11-15T19:04:05.156Z,210.02
2022-11-15T19:06:32.896Z,228.52
2022-11-15T19:09:00.901Z,204.18
2022-11-15T19:11:31.349Z,208.75
2022-11-15T19:14:06.339Z,203.45
2022-11-15T19:16:35.088Z,210.60
2022-11-15T19:19:04.433Z,181.57
2022-11-15T19:21:32.006Z,168.93
2022-11-15T19:24:01.858Z,172.52
2022-11-15T19:26:30.133Z,167.15
2022-11-15T19:28:59.932Z,171.23
2022-11-15T19:31:28.781Z,170.10
2022-11-15T19:33:57.026Z,167.82
2022-11-15T19:36:29.358Z,166.45
2022-11-15T19:38:57.291Z,303.45
2022-11-15T19:41:25.996Z,171.07
2022-11-15T19:43:53.870Z,156.60
2022-11-15T19:46:23.984Z,158.32
2022-11-15T19:48:52.353Z,163.25
2022-11-15T19:51:24.238Z,167.60
2022-11-15T19:53:55.697Z,158.45
2022-11-15T19:56:23.591Z,157.38
2022-11-15T19:58:52.881Z,154.48
2022-11-15T20:01:22.375Z,160.15
2022-11-15T20:03:51.602Z,149.70
2022-11-15T20:06:20.114Z,134.50
2022-11-15T20:08:51.190Z,128.93
2022-11-15T20:11:19.458Z,111.68
2022-11-15T20:13:47.592Z,101.25
2022-11-15T20:16:22.282Z,87.65
2022-11-15T20:18:51.483Z,69.57
2022-11-15T20:21:19.086Z,56.13
2022-11-15T20:23:48.238Z,51.63
2022-11-15T20:26:54.883Z,56.53
2022-11-15T20:29:44.829Z,54.60
2022-11-15T20:32:23.659Z,61.42
2022-11-15T20:34:54.053Z,61.20
2022-11-15T20:37:22.324Z,50.43
2022-11-15T20:39:49.975Z,61.08
2022-11-15T20:42:17.670Z,52.35
2022-11-15T20:44:45.493Z,55.70
2022-11-15T20:47:13.131Z,57.60
2022-11-15T20:49:40.964Z,62.85
2022-11-15T20:52:08.838Z,59.72
2022-11-15T20:54:36.268Z,58.22
2022-11-15T20:57:04.445Z,48.05
2022-11-15T20:59:31.572Z,58.60
2022-11-15T21:01:59.403Z,82.05
2022-11-15T21:04:27.319Z,111.22
2022-11-15T21:06:54.863Z,113.05
2022-11-15T21:09:41.168Z,106.72
2022-11-15T21:12:13.696Z,102.07
2022-11-15T21:14:42.314Z,93.93
2022-11-15T21:17:10.058Z,77.85
2022-11-15T21:19:38.405Z,70.78
2022-11-15T21:22:06.818Z,73.70
2022-11-15T21:24:35.123Z,65.90
2022-11-15T21:27:02.929Z,66.38
2022-11-15T21:29:38.058Z,70.22
2022-11-15T21:32:09.518Z,60.88
2022-11-15T21:34:37.660Z,60.28
2022-11-15T21:37:06.067Z,161.23
2022-11-15T21:39:33.910Z,428.42
2022-11-15T21:42:01.531Z,146.88
2022-11-15T21:44:30.117Z,162.40
2022-11-15T21:46:58.054Z,138.63
2022-11-15T21:49:25.770Z,93.35
2022-11-15T21:51:53.515Z,89.00
2022-11-15T21:54:21.165Z,87.93
2022-11-15T21:56:48.929Z,69.90
2022-11-15T21:59:16.650Z,68.60
2022-11-15T22:02:03.120Z,64.57
2022-11-15T22:04:30.837Z,61.22
2022-11-15T22:06:59.028Z,50.85
2022-11-15T22:09:27.168Z,55.85
2022-11-15T22:11:55.267Z,63.75
2022-11-15T22:14:22.851Z,65.68
2022-11-15T22:16:51.264Z,83.13
2022-11-15T22:19:20.093Z,471.80
2022-11-15T22:21:47.736Z,284.05
2022-11-15T22:24:16.176Z,102.15
2022-11-15T22:26:44.539Z,104.10
2022-11-15T22:29:12.868Z,113.60
2022-11-15T22:31:41.484Z,231.55
2022-11-15T22:34:11.301Z,105.63
2022-11-15T22:37:13.290Z,97.18
2022-11-15T22:39:32.625Z,81.60
2022-11-15T22:42:00.464Z,81.68
2022-11-15T22:44:27.782Z,74.60
2022-11-15T22:46:55.453Z,78.88
2022-11-15T22:49:23.297Z,82.15
2022-11-15T22:51:51.176Z,90.72
2022-11-15T22:54:19.559Z,86.05
2022-11-15T22:56:46.942Z,96.68
2022-11-15T22:59:14.783Z,88.00
2022-11-15T23:01:43.388Z,85.07
2022-11-15T23:04:11.531Z,58.38
2022-11-15T23:06:39.498Z,58.17
2022-11-15T23:09:07.265Z,49.00
2022-11-15T23:11:54.047Z,57.22
2022-11-15T23:14:22.335Z,52.25
2022-11-15T23:16:50.050Z,55.20
2022-11-15T23:19:18.097Z,57.03
2022-11-15T23:22:06.198Z,55.97
2022-11-15T23:24:34.815Z,52.80
2022-11-15T23:27:10.840Z,40.55
2022-11-15T23:29:58.325Z,42.70
2022-11-15T23:32:46.001Z,35.10
2022-11-15T23:35:13.615Z,32.88
2022-11-15T23:37:41.419Z,28.63
2022-11-15T23:40:09.560Z,26.25
2022-11-15T23:42:37.243Z,27.75
2022-11-15T23:45:05.310Z,27.13
2022-11-15T23:47:33.067Z,31.13
2022-11-15T23:50:00.793Z,23.48
2022-11-15T23:52:28.397Z,31.90
2022-11-15T23:54:56.165Z,25.23
2022-11-15T23:57:24.034Z,27.80
2022-11-15T23:59:53.080Z,24.55
